sensor_id;sensor_type;location;lat;lon;timestamp;P1;durP1;ratioP1;P2;durP2;ratioP2
44766;SDS011;30487;48.716;9.272;2023-01-25T00:01:51;24.42;;;12.38;;
44766;SDS011;30487;48.716;9.272;2023-01-25T00:04:20;23.48;;;11.75;;
44766;SDS011;30487;48.716;9.272;2023-01-25T00:06:47;25.02;;;11.43;;
44766;SDS011;30487;48.716;9.272;2023-01-25T00:09:13;26.15;;;12.30;;
44766;SDS011;30487;48.716;9.272;2023-01-25T00:11:39;24.85;;;11.65;;
44766;SDS011;30487;48.716;9.272;2023-01-25T00:14:05;23.75;;;11.45;;
44766;SDS011;30487;48.716;9.272;2023-01-25T00:16:33;23.23;;;11.55;;
44766;SDS011;30487;48.716;9.272;2023-01-25T00:18:58;24.75;;;11.82;;
44766;SDS011;30487;48.716;9.272;2023-01-25T00:21:25;27.58;;;12.13;;
44766;SDS011;30487;48.716;9.272;2023-01-25T00:23:51;23.65;;;11.68;;
44766;SDS011;30487;48.716;9.272;2023-01-25T00:26:16;26.20;;;11.90;;
44766;SDS011;30487;48.716;9.272;2023-01-25T00:28:47;21.77;;;11.52;;
44766;SDS011;30487;48.716;9.272;2023-01-25T00:31:15;23.60;;;11.48;;
44766;SDS011;30487;48.716;9.272;2023-01-25T00:34:36;24.95;;;11.52;;
44766;SDS011;30487;48.716;9.272;2023-01-25T00:37:22;24.63;;;11.73;;
44766;SDS011;30487;48.716;9.272;2023-01-25T00:39:52;26.25;;;11.50;;
44766;SDS011;30487;48.716;9.272;2023-01-25T00:42:18;26.17;;;11.82;;
44766;SDS011;30487;48.716;9.272;2023-01-25T00:44:44;21.42;;;10.98;;
44766;SDS011;30487;48.716;9.272;2023-01-25T00:47:10;22.75;;;11.13;;
44766;SDS011;30487;48.716;9.272;2023-01-25T00:49:37;21.58;;;11.35;;
44766;SDS011;30487;48.716;9.272;2023-01-25T00:52:06;26.27;;;12.27;;
44766;SDS011;30487;48.716;9.272;2023-01-25T00:54:33;24.35;;;11.65;;
44766;SDS011;30487;48.716;9.272;2023-01-25T00:56:58;24.10;;;11.52;;
44766;SDS011;30487;48.716;9.272;2023-01-25T00:59:24;20.40;;;11.00;;
44766;SDS011;30487;48.716;9.272;2023-01-25T01:01:50;24.75;;;11.18;;
44766;SDS011;30487;48.716;9.272;2023-01-25T01:04:16;28.95;;;12.30;;
44766;SDS011;30487;48.716;9.272;2023-01-25T01:06:43;26.33;;;10.80;;
44766;SDS011;30487;48.716;9.272;2023-01-25T01:14:56;24.80;;;12.23;;
44766;SDS011;30487;48.716;9.272;2023-01-25T01:17:22;25.25;;;12.35;;
44766;SDS011;30487;48.716;9.272;2023-01-25T01:19:47;25.10;;;12.10;;
44766;SDS011;30487;48.716;9.272;2023-01-25T01:22:13;22.80;;;11.38;;
44766;SDS011;30487;48.716;9.272;2023-01-25T01:24:38;24.60;;;11.50;;
44766;SDS011;30487;48.716;9.272;2023-01-25T01:27:04;23.85;;;11.95;;
44766;SDS011;30487;48.716;9.272;2023-01-25T01:29:30;24.33;;;11.70;;
44766;SDS011;30487;48.716;9.272;2023-01-25T01:31:55;27.45;;;12.82;;
44766;SDS011;30487;48.716;9.272;2023-01-25T01:34:21;29.00;;;12.75;;
44766;SDS011;30487;48.716;9.272;2023-01-25T01:36:47;24.48;;;12.10;;
44766;SDS011;30487;48.716;9.272;2023-01-25T01:39:12;23.58;;;11.93;;
44766;SDS011;30487;48.716;9.272;2023-01-25T01:41:38;24.23;;;11.73;;
44766;SDS011;30487;48.716;9.272;2023-01-25T01:44:04;23.33;;;11.88;;
44766;SDS011;30487;48.716;9.272;2023-01-25T01:46:34;23.15;;;11.77;;
44766;SDS011;30487;48.716;9.272;2023-01-25T01:54:07;24.45;;;11.70;;
44766;SDS011;30487;48.716;9.272;2023-01-25T01:56:55;25.27;;;12.50;;
44766;SDS011;30487;48.716;9.272;2023-01-25T02:02:21;24.35;;;11.48;;
44766;SDS011;30487;48.716;9.272;2023-01-25T02:04:50;26.45;;;12.57;;
44766;SDS011;30487;48.716;9.272;2023-01-25T02:07:19;23.85;;;11.48;;
44766;SDS011;30487;48.716;9.272;2023-01-25T02:09:49;24.52;;;11.50;;
44766;SDS011;30487;48.716;9.272;2023-01-25T02:12:15;24.40;;;11.43;;
44766;SDS011;30487;48.716;9.272;2023-01-25T02:14:44;24.45;;;11.77;;
44766;SDS011;30487;48.716;9.272;2023-01-25T02:17:13;21.83;;;10.82;;
44766;SDS011;30487;48.716;9.272;2023-01-25T02:22:38;22.25;;;11.55;;
44766;SDS011;30487;48.716;9.272;2023-01-25T02:25:10;23.63;;;11.82;;
44766;SDS011;30487;48.716;9.272;2023-01-25T02:27:45;27.65;;;12.35;;
44766;SDS011;30487;48.716;9.272;2023-01-25T02:30:17;25.30;;;11.52;;
44766;SDS011;30487;48.716;9.272;2023-01-25T02:32:43;23.27;;;11.63;;
44766;SDS011;30487;48.716;9.272;2023-01-25T02:35:16;23.63;;;11.20;;
44766;SDS011;30487;48.716;9.272;2023-01-25T02:37:46;24.25;;;11.13;;
44766;SDS011;30487;48.716;9.272;2023-01-25T02:40:13;23.10;;;11.57;;
44766;SDS011;30487;48.716;9.272;2023-01-25T02:42:40;23.63;;;11.38;;
44766;SDS011;30487;48.716;9.272;2023-01-25T02:45:08;24.02;;;11.73;;
44766;SDS011;30487;48.716;9.272;2023-01-25T02:47:38;27.90;;;11.93;;
44766;SDS011;30487;48.716;9.272;2023-01-25T02:50:04;23.92;;;10.93;;
44766;SDS011;30487;48.716;9.272;2023-01-25T02:52:30;21.50;;;10.57;;
44766;SDS011;30487;48.716;9.272;2023-01-25T02:54:55;23.17;;;10.77;;
44766;SDS011;30487;48.716;9.272;2023-01-25T02:57:21;24.40;;;11.20;;
44766;SDS011;30487;48.716;9.272;2023-01-25T02:59:46;23.88;;;11.30;;
44766;SDS011;30487;48.716;9.272;2023-01-25T03:02:12;22.70;;;10.15;;
44766;SDS011;30487;48.716;9.272;2023-01-25T03:04:38;23.33;;;11.27;;
44766;SDS011;30487;48.716;9.272;2023-01-25T03:07:03;25.52;;;11.18;;
44766;SDS011;30487;48.716;9.272;2023-01-25T03:09:29;23.38;;;11.00;;
44766;SDS011;30487;48.716;9.272;2023-01-25T03:11:55;22.63;;;10.57;;
44766;SDS011;30487;48.716;9.272;2023-01-25T03:14:20;21.90;;;10.95;;
44766;SDS011;30487;48.716;9.272;2023-01-25T03:16:46;23.17;;;10.70;;
44766;SDS011;30487;48.716;9.272;2023-01-25T03:19:11;22.90;;;10.55;;
44766;SDS011;30487;48.716;9.272;2023-01-25T03:21:38;23.02;;;11.27;;
44766;SDS011;30487;48.716;9.272;2023-01-25T03:24:05;21.27;;;10.90;;
44766;SDS011;30487;48.716;9.272;2023-01-25T03:26:32;21.27;;;10.43;;
44766;SDS011;30487;48.716;9.272;2023-01-25T03:29:18;21.80;;;10.80;;
44766;SDS011;30487;48.716;9.272;2023-01-25T03:31:43;23.65;;;10.85;;
44766;SDS011;30487;48.716;9.272;2023-01-25T03:34:09;21.42;;;10.00;;
44766;SDS011;30487;48.716;9.272;2023-01-25T03:36:34;24.67;;;10.60;;
44766;SDS011;30487;48.716;9.272;2023-01-25T03:39:00;23.77;;;10.45;;
44766;SDS011;30487;48.716;9.272;2023-01-25T03:41:25;22.73;;;10.23;;
44766;SDS011;30487;48.716;9.272;2023-01-25T03:43:51;22.65;;;10.38;;
44766;SDS011;30487;48.716;9.272;2023-01-25T03:46:16;22.77;;;11.13;;
44766;SDS011;30487;48.716;9.272;2023-01-25T03:48:42;25.17;;;10.77;;
44766;SDS011;30487;48.716;9.272;2023-01-25T03:51:07;20.65;;;10.07;;
44766;SDS011;30487;48.716;9.272;2023-01-25T03:53:33;21.13;;;10.20;;
44766;SDS011;30487;48.716;9.272;2023-01-25T03:56:00;23.13;;;10.55;;
44766;SDS011;30487;48.716;9.272;2023-01-25T03:58:27;20.45;;;9.95;;
44766;SDS011;30487;48.716;9.272;2023-01-25T04:00:55;20.52;;;9.85;;
44766;SDS011;30487;48.716;9.272;2023-01-25T04:03:22;20.23;;;10.00;;
44766;SDS011;30487;48.716;9.272;2023-01-25T04:05:49;21.65;;;9.43;;
44766;SDS011;30487;48.716;9.272;2023-01-25T04:08:15;26.25;;;10.48;;
44766;SDS011;30487;48.716;9.272;2023-01-25T04:10:41;22.70;;;9.90;;
44766;SDS011;30487;48.716;9.272;2023-01-25T04:13:07;20.70;;;9.60;;
44766;SDS011;30487;48.716;9.272;2023-01-25T04:15:33;20.80;;;10.15;;
44766;SDS011;30487;48.716;9.272;2023-01-25T04:17:59;21.17;;;9.40;;
44766;SDS011;30487;48.716;9.272;2023-01-25T04:20:24;19.63;;;9.27;;
44766;SDS011;30487;48.716;9.272;2023-01-25T04:22:50;22.92;;;9.45;;
44766;SDS011;30487;48.716;9.272;2023-01-25T04:25:16;19.75;;;8.93;;
44766;SDS011;30487;48.716;9.272;2023-01-25T04:30:44;18.15;;;8.93;;
44766;SDS011;30487;48.716;9.272;2023-01-25T04:33:09;18.52;;;8.73;;
44766;SDS011;30487;48.716;9.272;2023-01-25T04:35:36;20.10;;;9.90;;
44766;SDS011;30487;48.716;9.272;2023-01-25T04:38:02;20.33;;;8.73;;
44766;SDS011;30487;48.716;9.272;2023-01-25T04:40:28;22.20;;;10.25;;
44766;SDS011;30487;48.716;9.272;2023-01-25T04:42:54;19.08;;;9.48;;
44766;SDS011;30487;48.716;9.272;2023-01-25T04:45:20;20.42;;;8.95;;
44766;SDS011;30487;48.716;9.272;2023-01-25T04:47:46;18.73;;;8.60;;
44766;SDS011;30487;48.716;9.272;2023-01-25T04:50:12;22.27;;;9.43;;
44766;SDS011;30487;48.716;9.272;2023-01-25T04:52:37;20.50;;;9.13;;
44766;SDS011;30487;48.716;9.272;2023-01-25T04:55:03;18.77;;;8.80;;
44766;SDS011;30487;48.716;9.272;2023-01-25T04:57:29;17.92;;;8.65;;
44766;SDS011;30487;48.716;9.272;2023-01-25T04:59:54;19.00;;;8.90;;
44766;SDS011;30487;48.716;9.272;2023-01-25T05:02:20;20.33;;;9.00;;
44766;SDS011;30487;48.716;9.272;2023-01-25T05:04:45;22.35;;;9.80;;
44766;SDS011;30487;48.716;9.272;2023-01-25T05:07:11;19.55;;;9.10;;
44766;SDS011;30487;48.716;9.272;2023-01-25T05:09:36;19.60;;;8.63;;
44766;SDS011;30487;48.716;9.272;2023-01-25T05:12:02;20.13;;;9.15;;
44766;SDS011;30487;48.716;9.272;2023-01-25T05:14:27;20.58;;;9.20;;
44766;SDS011;30487;48.716;9.272;2023-01-25T05:16:53;16.52;;;8.13;;
44766;SDS011;30487;48.716;9.272;2023-01-25T05:19:19;20.17;;;8.88;;
44766;SDS011;30487;48.716;9.272;2023-01-25T05:21:44;18.38;;;8.85;;
44766;SDS011;30487;48.716;9.272;2023-01-25T05:24:22;18.05;;;8.40;;
44766;SDS011;30487;48.716;9.272;2023-01-25T05:26:49;21.00;;;9.10;;
44766;SDS011;30487;48.716;9.272;2023-01-25T05:29:30;19.48;;;8.82;;
44766;SDS011;30487;48.716;9.272;2023-01-25T05:32:04;19.75;;;8.85;;
44766;SDS011;30487;48.716;9.272;2023-01-25T05:34:31;19.67;;;8.90;;
44766;SDS011;30487;48.716;9.272;2023-01-25T05:36:56;19.02;;;8.55;;
44766;SDS011;30487;48.716;9.272;2023-01-25T05:39:22;19.75;;;8.80;;
44766;SDS011;30487;48.716;9.272;2023-01-25T05:41:48;17.35;;;8.98;;
44766;SDS011;30487;48.716;9.272;2023-01-25T05:44:14;18.73;;;9.13;;
44766;SDS011;30487;48.716;9.272;2023-01-25T05:46:40;19.08;;;8.70;;
44766;SDS011;30487;48.716;9.272;2023-01-25T05:49:05;18.73;;;8.70;;
44766;SDS011;30487;48.716;9.272;2023-01-25T05:51:31;17.67;;;8.35;;
44766;SDS011;30487;48.716;9.272;2023-01-25T05:53:57;19.27;;;8.27;;
44766;SDS011;30487;48.716;9.272;2023-01-25T05:56:23;16.83;;;8.27;;
44766;SDS011;30487;48.716;9.272;2023-01-25T05:58:52;20.15;;;8.55;;
44766;SDS011;30487;48.716;9.272;2023-01-25T06:01:18;19.58;;;8.57;;
44766;SDS011;30487;48.716;9.272;2023-01-25T06:03:44;15.15;;;7.82;;
44766;SDS011;30487;48.716;9.272;2023-01-25T06:06:10;18.17;;;7.85;;
44766;SDS011;30487;48.716;9.272;2023-01-25T06:08:36;17.65;;;8.25;;
44766;SDS011;30487;48.716;9.272;2023-01-25T06:11:08;19.20;;;8.32;;
44766;SDS011;30487;48.716;9.272;2023-01-25T06:13:35;17.63;;;8.43;;
44766;SDS011;30487;48.716;9.272;2023-01-25T06:16:01;18.83;;;9.07;;
44766;SDS011;30487;48.716;9.272;2023-01-25T06:18:28;19.15;;;8.85;;
44766;SDS011;30487;48.716;9.272;2023-01-25T06:20:58;20.80;;;8.73;;
44766;SDS011;30487;48.716;9.272;2023-01-25T06:23:24;19.63;;;8.73;;
44766;SDS011;30487;48.716;9.272;2023-01-25T06:25:50;16.65;;;8.25;;
44766;SDS011;30487;48.716;9.272;2023-01-25T06:28:17;17.90;;;8.55;;
44766;SDS011;30487;48.716;9.272;2023-01-25T06:30:43;16.50;;;8.32;;
44766;SDS011;30487;48.716;9.272;2023-01-25T06:33:08;19.38;;;9.35;;
44766;SDS011;30487;48.716;9.272;2023-01-25T06:35:34;17.98;;;8.73;;
44766;SDS011;30487;48.716;9.272;2023-01-25T06:38:00;17.83;;;9.07;;
44766;SDS011;30487;48.716;9.272;2023-01-25T06:40:26;17.95;;;9.25;;
44766;SDS011;30487;48.716;9.272;2023-01-25T06:42:53;20.70;;;8.93;;
44766;SDS011;30487;48.716;9.272;2023-01-25T06:45:19;21.23;;;9.18;;
44766;SDS011;30487;48.716;9.272;2023-01-25T06:47:44;20.80;;;10.00;;
44766;SDS011;30487;48.716;9.272;2023-01-25T06:50:13;20.08;;;8.98;;
44766;SDS011;30487;48.716;9.272;2023-01-25T06:52:39;17.70;;;8.50;;
44766;SDS011;30487;48.716;9.272;2023-01-25T06:55:05;19.10;;;8.80;;
44766;SDS011;30487;48.716;9.272;2023-01-25T06:57:32;18.58;;;9.13;;
44766;SDS011;30487;48.716;9.272;2023-01-25T06:59:58;20.10;;;8.98;;
44766;SDS011;30487;48.716;9.272;2023-01-25T07:02:24;17.90;;;8.20;;
44766;SDS011;30487;48.716;9.272;2023-01-25T07:04:50;17.85;;;8.90;;
44766;SDS011;30487;48.716;9.272;2023-01-25T07:07:16;19.20;;;8.77;;
44766;SDS011;30487;48.716;9.272;2023-01-25T07:09:41;17.50;;;8.30;;
44766;SDS011;30487;48.716;9.272;2023-01-25T07:12:07;17.50;;;8.48;;
44766;SDS011;30487;48.716;9.272;2023-01-25T07:14:32;20.60;;;8.60;;
44766;SDS011;30487;48.716;9.272;2023-01-25T07:16:59;17.80;;;8.60;;
44766;SDS011;30487;48.716;9.272;2023-01-25T07:19:24;17.75;;;9.15;;
44766;SDS011;30487;48.716;9.272;2023-01-25T07:21:50;21.05;;;9.70;;
44766;SDS011;30487;48.716;9.272;2023-01-25T07:24:17;18.83;;;8.63;;
44766;SDS011;30487;48.716;9.272;2023-01-25T07:26:44;17.73;;;8.77;;
44766;SDS011;30487;48.716;9.272;2023-01-25T07:29:13;18.40;;;9.15;;
44766;SDS011;30487;48.716;9.272;2023-01-25T07:31:40;22.50;;;10.43;;
44766;SDS011;30487;48.716;9.272;2023-01-25T07:34:08;21.23;;;9.68;;
44766;SDS011;30487;48.716;9.272;2023-01-25T07:36:35;21.13;;;9.68;;
44766;SDS011;30487;48.716;9.272;2023-01-25T07:39:01;17.63;;;9.05;;
44766;SDS011;30487;48.716;9.272;2023-01-25T07:41:27;19.60;;;9.02;;
44766;SDS011;30487;48.716;9.272;2023-01-25T07:43:53;18.95;;;9.05;;
44766;SDS011;30487;48.716;9.272;2023-01-25T07:46:19;19.98;;;9.73;;
44766;SDS011;30487;48.716;9.272;2023-01-25T07:48:49;19.90;;;9.90;;
44766;SDS011;30487;48.716;9.272;2023-01-25T07:51:17;19.92;;;10.10;;
44766;SDS011;30487;48.716;9.272;2023-01-25T07:53:52;21.02;;;9.02;;
44766;SDS011;30487;48.716;9.272;2023-01-25T07:56:24;17.85;;;8.98;;
44766;SDS011;30487;48.716;9.272;2023-01-25T07:58:52;21.15;;;10.30;;
44766;SDS011;30487;48.716;9.272;2023-01-25T08:01:20;22.38;;;9.60;;
44766;SDS011;30487;48.716;9.272;2023-01-25T08:03:47;20.63;;;10.38;;
44766;SDS011;30487;48.716;9.272;2023-01-25T08:06:13;20.83;;;9.48;;
44766;SDS011;30487;48.716;9.272;2023-01-25T08:08:41;18.08;;;8.88;;
44766;SDS011;30487;48.716;9.272;2023-01-25T08:11:13;19.13;;;8.73;;
44766;SDS011;30487;48.716;9.272;2023-01-25T08:13:41;22.47;;;10.70;;
44766;SDS011;30487;48.716;9.272;2023-01-25T08:16:13;21.25;;;10.05;;
44766;SDS011;30487;48.716;9.272;2023-01-25T08:18:40;19.17;;;8.75;;
44766;SDS011;30487;48.716;9.272;2023-01-25T08:21:07;21.52;;;9.13;;
44766;SDS011;30487;48.716;9.272;2023-01-25T08:23:34;19.35;;;9.05;;
44766;SDS011;30487;48.716;9.272;2023-01-25T08:26:00;16.77;;;8.60;;
44766;SDS011;30487;48.716;9.272;2023-01-25T08:28:30;19.27;;;8.95;;
44766;SDS011;30487;48.716;9.272;2023-01-25T08:31:13;18.25;;;9.10;;
44766;SDS011;30487;48.716;9.272;2023-01-25T08:33:45;19.63;;;8.85;;
44766;SDS011;30487;48.716;9.272;2023-01-25T08:36:12;19.33;;;9.43;;
44766;SDS011;30487;48.716;9.272;2023-01-25T08:38:39;19.55;;;9.40;;
44766;SDS011;30487;48.716;9.272;2023-01-25T08:41:05;21.90;;;9.55;;
44766;SDS011;30487;48.716;9.272;2023-01-25T08:43:36;18.92;;;8.95;;
44766;SDS011;30487;48.716;9.272;2023-01-25T08:46:02;18.48;;;8.98;;
44766;SDS011;30487;48.716;9.272;2023-01-25T08:48:28;17.98;;;9.00;;
44766;SDS011;30487;48.716;9.272;2023-01-25T08:50:54;22.55;;;9.60;;
44766;SDS011;30487;48.716;9.272;2023-01-25T08:53:19;18.55;;;9.30;;
44766;SDS011;30487;48.716;9.272;2023-01-25T08:55:45;23.83;;;10.63;;
44766;SDS011;30487;48.716;9.272;2023-01-25T08:58:11;29.65;;;10.70;;
44766;SDS011;30487;48.716;9.272;2023-01-25T09:00:38;23.23;;;10.18;;
44766;SDS011;30487;48.716;9.272;2023-01-25T09:03:05;20.75;;;9.93;;
44766;SDS011;30487;48.716;9.272;2023-01-25T09:05:35;19.70;;;9.52;;
44766;SDS011;30487;48.716;9.272;2023-01-25T09:08:02;24.98;;;11.25;;
44766;SDS011;30487;48.716;9.272;2023-01-25T09:10:28;20.70;;;9.90;;
44766;SDS011;30487;48.716;9.272;2023-01-25T09:12:54;19.73;;;9.82;;
44766;SDS011;30487;48.716;9.272;2023-01-25T09:15:20;19.90;;;9.45;;
44766;SDS011;30487;48.716;9.272;2023-01-25T09:17:49;19.77;;;9.57;;
44766;SDS011;30487;48.716;9.272;2023-01-25T09:20:15;19.58;;;9.27;;
44766;SDS011;30487;48.716;9.272;2023-01-25T09:22:41;17.42;;;8.77;;
44766;SDS011;30487;48.716;9.272;2023-01-25T09:25:07;20.83;;;9.95;;
44766;SDS011;30487;48.716;9.272;2023-01-25T09:27:33;21.92;;;9.85;;
44766;SDS011;30487;48.716;9.272;2023-01-25T09:29:58;20.08;;;10.13;;
44766;SDS011;30487;48.716;9.272;2023-01-25T09:32:24;23.60;;;10.10;;
44766;SDS011;30487;48.716;9.272;2023-01-25T09:34:50;19.92;;;9.82;;
44766;SDS011;30487;48.716;9.272;2023-01-25T09:37:15;21.67;;;9.75;;
44766;SDS011;30487;48.716;9.272;2023-01-25T09:39:41;20.98;;;10.13;;
44766;SDS011;30487;48.716;9.272;2023-01-25T09:44:59;21.73;;;9.73;;
44766;SDS011;30487;48.716;9.272;2023-01-25T09:50:35;21.15;;;9.85;;
44766;SDS011;30487;48.716;9.272;2023-01-25T09:53:26;22.45;;;9.65;;
44766;SDS011;30487;48.716;9.272;2023-01-25T09:56:08;22.13;;;9.75;;
44766;SDS011;30487;48.716;9.272;2023-01-25T09:58:44;22.10;;;9.88;;
44766;SDS011;30487;48.716;9.272;2023-01-25T10:01:20;24.73;;;10.18;;
44766;SDS011;30487;48.716;9.272;2023-01-25T10:10:09;20.70;;;10.10;;
44766;SDS011;30487;48.716;9.272;2023-01-25T10:12:40;26.35;;;12.75;;
44766;SDS011;30487;48.716;9.272;2023-01-25T10:15:19;22.65;;;11.25;;
44766;SDS011;30487;48.716;9.272;2023-01-25T10:18:09;21.90;;;10.02;;
44766;SDS011;30487;48.716;9.272;2023-01-25T10:23:39;20.30;;;9.38;;
44766;SDS011;30487;48.716;9.272;2023-01-25T10:28:53;20.63;;;10.10;;
44766;SDS011;30487;48.716;9.272;2023-01-25T10:31:32;24.83;;;11.70;;
44766;SDS011;30487;48.716;9.272;2023-01-25T10:36:47;18.45;;;9.50;;
44766;SDS011;30487;48.716;9.272;2023-01-25T10:39:17;19.83;;;9.68;;
44766;SDS011;30487;48.716;9.272;2023-01-25T10:41:55;17.35;;;8.88;;
44766;SDS011;30487;48.716;9.272;2023-01-25T10:44:29;19.25;;;8.73;;
44766;SDS011;30487;48.716;9.272;2023-01-25T10:46:59;18.80;;;9.27;;
44766;SDS011;30487;48.716;9.272;2023-01-25T10:49:41;21.20;;;9.07;;
44766;SDS011;30487;48.716;9.272;2023-01-25T10:52:14;20.02;;;9.75;;
44766;SDS011;30487;48.716;9.272;2023-01-25T10:54:46;17.70;;;8.98;;
44766;SDS011;30487;48.716;9.272;2023-01-25T10:57:18;21.00;;;9.27;;
44766;SDS011;30487;48.716;9.272;2023-01-25T10:59:47;18.35;;;8.80;;
44766;SDS011;30487;48.716;9.272;2023-01-25T11:05:14;23.58;;;9.75;;
44766;SDS011;30487;48.716;9.272;2023-01-25T11:07:43;23.45;;;9.93;;
44766;SDS011;30487;48.716;9.272;2023-01-25T11:10:25;22.45;;;9.98;;
44766;SDS011;30487;48.716;9.272;2023-01-25T11:15:44;18.15;;;9.27;;
44766;SDS011;30487;48.716;9.272;2023-01-25T11:18:35;19.48;;;9.85;;
44766;SDS011;30487;48.716;9.272;2023-01-25T11:21:17;20.40;;;10.00;;
44766;SDS011;30487;48.716;9.272;2023-01-25T11:24:01;19.30;;;9.65;;
44766;SDS011;30487;48.716;9.272;2023-01-25T11:26:27;18.85;;;9.45;;
44766;SDS011;30487;48.716;9.272;2023-01-25T11:29:04;18.40;;;9.68;;
44766;SDS011;30487;48.716;9.272;2023-01-25T11:31:30;18.15;;;9.15;;
44766;SDS011;30487;48.716;9.272;2023-01-25T11:33:56;17.98;;;8.93;;
44766;SDS011;30487;48.716;9.272;2023-01-25T11:42:15;21.13;;;8.55;;
44766;SDS011;30487;48.716;9.272;2023-01-25T11:47:49;16.25;;;8.60;;
44766;SDS011;30487;48.716;9.272;2023-01-25T11:56:00;17.73;;;8.82;;
44766;SDS011;30487;48.716;9.272;2023-01-25T11:58:55;15.45;;;8.23;;
44766;SDS011;30487;48.716;9.272;2023-01-25T12:02:04;17.30;;;9.07;;
44766;SDS011;30487;48.716;9.272;2023-01-25T12:24:43;21.38;;;9.85;;
44766;SDS011;30487;48.716;9.272;2023-01-25T12:30:35;18.73;;;9.70;;
44766;SDS011;30487;48.716;9.272;2023-01-25T12:33:28;18.42;;;9.15;;
44766;SDS011;30487;48.716;9.272;2023-01-25T12:36:03;20.60;;;10.25;;
44766;SDS011;30487;48.716;9.272;2023-01-25T12:41:40;22.38;;;10.13;;
44766;SDS011;30487;48.716;9.272;2023-01-25T12:47:10;21.63;;;9.45;;
44766;SDS011;30487;48.716;9.272;2023-01-25T12:49:54;21.85;;;10.23;;
44766;SDS011;30487;48.716;9.272;2023-01-25T12:52:31;20.60;;;9.52;;
44766;SDS011;30487;48.716;9.272;2023-01-25T12:55:03;25.88;;;10.90;;
44766;SDS011;30487;48.716;9.272;2023-01-25T13:03:43;20.75;;;9.95;;
44766;SDS011;30487;48.716;9.272;2023-01-25T13:06:19;20.67;;;10.10;;
44766;SDS011;30487;48.716;9.272;2023-01-25T13:09:04;23.17;;;10.90;;
44766;SDS011;30487;48.716;9.272;2023-01-25T13:11:32;24.08;;;10.48;;
44766;SDS011;30487;48.716;9.272;2023-01-25T13:14:17;23.17;;;10.38;;
44766;SDS011;30487;48.716;9.272;2023-01-25T13:16:52;22.33;;;10.20;;
44766;SDS011;30487;48.716;9.272;2023-01-25T13:19:20;22.02;;;10.63;;
44766;SDS011;30487;48.716;9.272;2023-01-25T13:21:56;23.23;;;10.40;;
44766;SDS011;30487;48.716;9.272;2023-01-25T13:24:23;24.17;;;11.40;;
44766;SDS011;30487;48.716;9.272;2023-01-25T13:32:00;24.95;;;11.73;;
44766;SDS011;30487;48.716;9.272;2023-01-25T13:37:00;25.55;;;10.95;;
44766;SDS011;30487;48.716;9.272;2023-01-25T13:44:47;25.02;;;11.15;;
44766;SDS011;30487;48.716;9.272;2023-01-25T13:47:15;24.30;;;11.27;;
44766;SDS011;30487;48.716;9.272;2023-01-25T13:50:29;24.15;;;11.35;;
44766;SDS011;30487;48.716;9.272;2023-01-25T13:53:04;23.60;;;10.90;;
44766;SDS011;30487;48.716;9.272;2023-01-25T13:55:42;23.92;;;10.95;;
44766;SDS011;30487;48.716;9.272;2023-01-25T13:58:15;22.73;;;10.55;;
44766;SDS011;30487;48.716;9.272;2023-01-25T14:03:29;25.27;;;11.60;;
44766;SDS011;30487;48.716;9.272;2023-01-25T14:06:04;23.77;;;11.10;;
44766;SDS011;30487;48.716;9.272;2023-01-25T14:08:37;18.88;;;8.43;;
44766;SDS011;30487;48.716;9.272;2023-01-25T14:11:03;25.98;;;12.10;;
44766;SDS011;30487;48.716;9.272;2023-01-25T14:13:29;22.33;;;10.55;;
44766;SDS011;30487;48.716;9.272;2023-01-25T14:15:56;25.23;;;11.32;;
44766;SDS011;30487;48.716;9.272;2023-01-25T14:18:32;26.17;;;10.95;;
44766;SDS011;30487;48.716;9.272;2023-01-25T14:21:10;24.50;;;10.55;;
44766;SDS011;30487;48.716;9.272;2023-01-25T14:23:39;22.77;;;11.25;;
44766;SDS011;30487;48.716;9.272;2023-01-25T14:26:18;24.20;;;10.93;;
44766;SDS011;30487;48.716;9.272;2023-01-25T14:28:45;28.27;;;12.45;;
44766;SDS011;30487;48.716;9.272;2023-01-25T14:31:16;32.22;;;13.43;;
44766;SDS011;30487;48.716;9.272;2023-01-25T14:33:44;33.53;;;13.82;;
44766;SDS011;30487;48.716;9.272;2023-01-25T14:36:12;28.70;;;11.95;;
44766;SDS011;30487;48.716;9.272;2023-01-25T14:38:43;27.40;;;11.70;;
44766;SDS011;30487;48.716;9.272;2023-01-25T14:43:52;27.10;;;12.02;;
44766;SDS011;30487;48.716;9.272;2023-01-25T14:46:24;24.70;;;10.90;;
44766;SDS011;30487;48.716;9.272;2023-01-25T14:48:49;24.45;;;11.13;;
44766;SDS011;30487;48.716;9.272;2023-01-25T14:53:48;32.85;;;13.32;;
44766;SDS011;30487;48.716;9.272;2023-01-25T14:58:53;31.70;;;12.75;;
44766;SDS011;30487;48.716;9.272;2023-01-25T15:01:28;25.88;;;11.68;;
44766;SDS011;30487;48.716;9.272;2023-01-25T15:04:08;25.63;;;11.38;;
44766;SDS011;30487;48.716;9.272;2023-01-25T15:06:47;26.00;;;11.35;;
44766;SDS011;30487;48.716;9.272;2023-01-25T15:09:30;24.13;;;10.60;;
44766;SDS011;30487;48.716;9.272;2023-01-25T15:12:04;26.38;;;11.70;;
44766;SDS011;30487;48.716;9.272;2023-01-25T15:14:46;27.55;;;11.10;;
44766;SDS011;30487;48.716;9.272;2023-01-25T15:23:23;36.63;;;13.93;;
44766;SDS011;30487;48.716;9.272;2023-01-25T15:25:54;30.25;;;12.60;;
44766;SDS011;30487;48.716;9.272;2023-01-25T15:28:22;28.02;;;11.95;;
44766;SDS011;30487;48.716;9.272;2023-01-25T15:30:49;24.88;;;10.75;;
44766;SDS011;30487;48.716;9.272;2023-01-25T15:33:19;25.48;;;10.73;;
44766;SDS011;30487;48.716;9.272;2023-01-25T15:35:47;24.73;;;9.95;;
44766;SDS011;30487;48.716;9.272;2023-01-25T15:38:14;22.23;;;9.38;;
44766;SDS011;30487;48.716;9.272;2023-01-25T15:40:40;22.42;;;9.55;;
44766;SDS011;30487;48.716;9.272;2023-01-25T15:43:08;22.95;;;8.75;;
44766;SDS011;30487;48.716;9.272;2023-01-25T15:45:35;19.45;;;9.00;;
44766;SDS011;30487;48.716;9.272;2023-01-25T15:48:01;22.27;;;9.55;;
44766;SDS011;30487;48.716;9.272;2023-01-25T15:50:27;24.35;;;9.60;;
44766;SDS011;30487;48.716;9.272;2023-01-25T15:52:53;21.63;;;9.05;;
44766;SDS011;30487;48.716;9.272;2023-01-25T15:55:19;21.42;;;9.10;;
44766;SDS011;30487;48.716;9.272;2023-01-25T15:57:45;20.58;;;8.77;;
44766;SDS011;30487;48.716;9.272;2023-01-25T16:00:17;19.70;;;8.65;;
44766;SDS011;30487;48.716;9.272;2023-01-25T16:02:45;19.85;;;9.23;;
44766;SDS011;30487;48.716;9.272;2023-01-25T16:05:11;19.45;;;8.45;;
44766;SDS011;30487;48.716;9.272;2023-01-25T16:07:37;21.40;;;9.20;;
44766;SDS011;30487;48.716;9.272;2023-01-25T16:10:04;21.13;;;8.98;;
44766;SDS011;30487;48.716;9.272;2023-01-25T16:12:30;22.65;;;9.55;;
44766;SDS011;30487;48.716;9.272;2023-01-25T16:14:58;22.10;;;9.60;;
44766;SDS011;30487;48.716;9.272;2023-01-25T16:17:24;23.25;;;9.40;;
44766;SDS011;30487;48.716;9.272;2023-01-25T16:19:51;21.17;;;8.65;;
44766;SDS011;30487;48.716;9.272;2023-01-25T16:22:16;20.33;;;9.15;;
44766;SDS011;30487;48.716;9.272;2023-01-25T16:24:43;20.58;;;8.98;;
44766;SDS011;30487;48.716;9.272;2023-01-25T16:27:16;21.02;;;8.57;;
44766;SDS011;30487;48.716;9.272;2023-01-25T16:29:52;18.55;;;8.57;;
44766;SDS011;30487;48.716;9.272;2023-01-25T16:32:18;21.92;;;8.82;;
44766;SDS011;30487;48.716;9.272;2023-01-25T16:34:44;18.55;;;8.00;;
44766;SDS011;30487;48.716;9.272;2023-01-25T16:37:16;18.83;;;8.70;;
44766;SDS011;30487;48.716;9.272;2023-01-25T16:39:42;21.00;;;8.18;;
44766;SDS011;30487;48.716;9.272;2023-01-25T16:42:08;17.55;;;8.32;;
44766;SDS011;30487;48.716;9.272;2023-01-25T16:44:34;22.42;;;8.23;;
44766;SDS011;30487;48.716;9.272;2023-01-25T16:47:00;20.23;;;8.43;;